Time;durP1;ratioP1;P1;durP2;ratioP2;P2;SDS_P1;SDS_P2;PMS_P1;PMS_P2;Temp;Humidity;BMP_temperature;BMP_pressure;BME280_temperature;BME280_humidity;BME280_pressure;Samples;Min_cycle;Max_cycle;Signal;HPM_P1;HPM_P2
2022/04/04 00:01:42;;;;;;;;;;;22.50;48.30;;;;;;5101328;28;983;-36
2022/04/04 00:04:09;;;;;;;;;;;22.40;48.30;;;;;;5101465;28;984;-36
2022/04/04 00:06:36;;;;;;;;;;;22.40;48.30;;;;;;5101135;28;956;-36
2022/04/04 00:09:03;;;;;;;;;;;22.50;48.30;;;;;;5100825;28;1000;-37
2022/04/04 00:11:29;;;;;;;;;;;22.40;48.20;;;;;;5100488;28;988;-37
2022/04/04 00:13:57;;;;;;;;;;;22.40;48.20;;;;;;5101259;28;993;-37
2022/04/04 00:16:24;;;;;;;;;;;22.40;48.30;;;;;;5100613;28;1902;-37
2022/04/04 00:18:51;;;;;;;;;;;22.40;48.20;;;;;;5100776;28;985;-35
2022/04/04 00:21:18;;;;;;;;;;;22.40;48.20;;;;;;5100664;28;960;-36
2022/04/04 00:23:44;;;;;;;;;;;22.40;48.30;;;;;;5100288;28;960;-36
2022/04/04 00:26:11;;;;;;;;;;;22.40;48.20;;;;;;5101061;28;953;-36
2022/04/04 00:28:38;;;;;;;;;;;22.40;48.20;;;;;;5100475;28;1007;-37
2022/04/04 00:31:06;;;;;;;;;;;22.40;48.20;;;;;;5100645;28;1030;-37
2022/04/04 00:33:33;;;;;;;;;;;22.40;48.20;;;;;;5100764;28;1002;-37
2022/04/04 00:35:59;;;;;;;;;;;22.30;48.20;;;;;;5100339;28;2004;-37
2022/04/04 00:38:26;;;;;;;;;;;22.30;48.20;;;;;;5100133;28;1051;-37
2022/04/04 00:40:53;;;;;;;;;;;22.30;48.20;;;;;;5100622;28;995;-37
2022/04/04 00:43:19;;;;;;;;;;;22.40;48.20;;;;;;5100036;28;1043;-36
2022/04/04 00:45:46;;;;;;;;;;;22.30;48.20;;;;;;5099435;28;1008;-35
2022/04/04 00:48:14;;;;;;;;;;;22.30;48.20;;;;;;5098947;28;995;-36
2022/04/04 00:50:41;;;;;;;;;;;22.30;48.20;;;;;;5100064;28;952;-37
2022/04/04 00:53:10;;;;;;;;;;;22.30;48.20;;;;;;5099201;28;992;-37
2022/04/04 00:55:37;;;;;;;;;;;22.30;48.20;;;;;;5099328;28;1063;-35
2022/04/04 00:58:05;;;;;;;;;;;22.30;48.20;;;;;;5100639;28;1906;-35
2022/04/04 01:00:32;;;;;;;;;;;22.30;48.20;;;;;;5099555;28;952;-38
2022/04/04 01:02:59;;;;;;;;;;;22.30;48.20;;;;;;5099441;28;913;-37
2022/04/04 01:05:27;;;;;;;;;;;22.20;48.20;;;;;;5098424;28;944;-38
2022/04/04 01:07:54;;;;;;;;;;;22.20;48.20;;;;;;5099415;28;1005;-37
2022/04/04 01:10:20;;;;;;;;;;;22.20;48.10;;;;;;5099412;28;1004;-37
2022/04/04 01:12:51;;;;;;;;;;;22.20;48.10;;;;;;5099346;28;941;-37
2022/04/04 01:15:18;;;;;;;;;;;22.20;48.10;;;;;;5099121;28;1032;-37
2022/04/04 01:17:45;;;;;;;;;;;22.20;48.10;;;;;;5099659;28;1905;-37
2022/04/04 01:20:12;;;;;;;;;;;22.20;48.10;;;;;;5099446;28;1017;-37
2022/04/04 01:22:40;;;;;;;;;;;22.20;48.10;;;;;;5098859;28;1430;-36
2022/04/04 01:25:09;;;;;;;;;;;22.20;48.10;;;;;;5098576;28;996;-35
2022/04/04 01:27:36;;;;;;;;;;;22.20;48.10;;;;;;5099299;28;987;-37
2022/04/04 01:30:03;;;;;;;;;;;22.20;48.10;;;;;;5099128;28;908;-35
2022/04/04 01:32:30;;;;;;;;;;;22.20;48.20;;;;;;5099062;28;1064;-38
2022/04/04 01:34:56;;;;;;;;;;;22.20;48.20;;;;;;5099478;28;976;-37
2022/04/04 01:37:23;;;;;;;;;;;22.20;48.20;;;;;;5098879;28;1901;-38
2022/04/04 01:39:50;;;;;;;;;;;22.20;48.10;;;;;;5099156;28;1020;-38
2022/04/04 01:42:18;;;;;;;;;;;22.20;48.10;;;;;;5099204;28;1027;-38
2022/04/04 01:44:45;;;;;;;;;;;22.20;48.10;;;;;;5098964;28;1153;-37
2022/04/04 01:47:11;;;;;;;;;;;22.20;48.10;;;;;;5099324;28;965;-37
2022/04/04 01:49:38;;;;;;;;;;;22.20;48.10;;;;;;5098865;28;961;-36
2022/04/04 01:52:05;;;;;;;;;;;22.20;48.10;;;;;;5098358;28;1011;-35
2022/04/04 01:54:32;;;;;;;;;;;22.20;48.10;;;;;;5099092;28;999;-37
2022/04/04 01:56:59;;;;;;;;;;;22.20;48.10;;;;;;5098658;28;1898;-37
2022/04/04 01:59:27;;;;;;;;;;;22.10;48.10;;;;;;5099151;28;1086;-37
2022/04/04 02:01:54;;;;;;;;;;;22.10;48.00;;;;;;5099349;28;927;-37
2022/04/04 02:04:20;;;;;;;;;;;22.10;48.10;;;;;;5099540;28;1011;-36
2022/04/04 02:06:47;;;;;;;;;;;22.10;48.10;;;;;;5098621;28;944;-37
2022/04/04 02:09:17;;;;;;;;;;;22.10;48.00;;;;;;5099118;28;1024;-37
2022/04/04 02:11:44;;;;;;;;;;;22.10;48.10;;;;;;5098247;28;1011;-36
2022/04/04 02:14:11;;;;;;;;;;;22.10;48.10;;;;;;5099016;28;1441;-37
2022/04/04 02:16:39;;;;;;;;;;;22.00;48.00;;;;;;5098253;28;1901;-37
2022/04/04 02:19:05;;;;;;;;;;;22.00;48.00;;;;;;5098668;28;1043;-36
2022/04/04 02:21:32;;;;;;;;;;;22.10;48.10;;;;;;5098058;28;985;-37
2022/04/04 02:23:59;;;;;;;;;;;22.10;48.10;;;;;;5098582;28;980;-36
2022/04/04 02:26:26;;;;;;;;;;;22.00;48.00;;;;;;5098358;28;1018;-36
2022/04/04 02:28:52;;;;;;;;;;;22.10;48.10;;;;;;5098949;28;972;-37
2022/04/04 02:31:19;;;;;;;;;;;22.10;48.00;;;;;;5098030;28;1039;-36
2022/04/04 02:33:47;;;;;;;;;;;22.10;48.10;;;;;;5099629;28;1008;-38
2022/04/04 02:36:14;;;;;;;;;;;22.00;48.00;;;;;;5097837;28;953;-37
2022/04/04 02:38:41;;;;;;;;;;;22.00;48.00;;;;;;5097637;28;1906;-37
2022/04/04 02:41:08;;;;;;;;;;;22.00;48.00;;;;;;5098887;28;945;-36
2022/04/04 02:43:35;;;;;;;;;;;22.10;48.00;;;;;;5098538;28;992;-37
2022/04/04 02:46:02;;;;;;;;;;;22.00;48.00;;;;;;5098284;28;1065;-35
2022/04/04 02:48:29;;;;;;;;;;;22.00;48.10;;;;;;5098114;28;1022;-36
2022/04/04 02:50:57;;;;;;;;;;;22.00;48.00;;;;;;5098342;28;1060;-37
2022/04/04 02:53:24;;;;;;;;;;;22.00;48.00;;;;;;5098169;28;965;-36
2022/04/04 02:58:34;;;;;;;;;;;22.00;48.00;;;;;;5098047;28;1978;-37
2022/04/04 03:01:03;;;;;;;;;;;22.00;47.90;;;;;;5097597;28;952;-35
2022/04/04 03:03:29;;;;;;;;;;;22.00;48.00;;;;;;5098914;28;954;-37
2022/04/04 03:05:57;;;;;;;;;;;22.00;48.00;;;;;;5098165;28;999;-38
2022/04/04 03:08:24;;;;;;;;;;;22.00;48.00;;;;;;5098564;28;1022;-36
2022/04/04 03:10:51;;;;;;;;;;;21.90;48.00;;;;;;5098178;28;949;-37
2022/04/04 03:13:17;;;;;;;;;;;22.00;48.00;;;;;;5098078;28;967;-36
2022/04/04 03:15:44;;;;;;;;;;;22.00;48.00;;;;;;5098086;28;912;-37
2022/04/04 03:18:11;;;;;;;;;;;21.90;47.90;;;;;;5097662;28;1984;-36
2022/04/04 03:20:38;;;;;;;;;;;22.00;48.00;;;;;;5097791;28;1007;-35
2022/04/04 03:23:06;;;;;;;;;;;22.00;47.90;;;;;;5097507;28;944;-37
2022/04/04 03:25:33;;;;;;;;;;;21.90;48.00;;;;;;5097567;28;1011;-37
2022/04/04 03:28:00;;;;;;;;;;;21.90;47.90;;;;;;5097469;28;952;-37
2022/04/04 03:30:28;;;;;;;;;;;21.90;47.90;;;;;;5101512;28;968;-36
2022/04/04 03:32:57;;;;;;;;;;;22.00;47.90;;;;;;5101140;28;931;-37
2022/04/04 03:35:24;;;;;;;;;;;22.00;47.80;;;;;;5100644;28;1008;-38
2022/04/04 03:37:53;;;;;;;;;;;22.00;47.70;;;;;;5100852;28;1980;-36
2022/04/04 03:40:21;;;;;;;;;;;22.00;47.70;;;;;;5100553;28;969;-36
2022/04/04 03:42:49;;;;;;;;;;;21.90;47.80;;;;;;5100796;28;1058;-37
2022/04/04 03:45:16;;;;;;;;;;;21.90;47.80;;;;;;5100890;28;1014;-36
2022/04/04 03:47:43;;;;;;;;;;;21.90;47.80;;;;;;5100522;28;1073;-37
2022/04/04 03:50:12;;;;;;;;;;;21.90;47.80;;;;;;5100543;28;980;-35
2022/04/04 03:52:39;;;;;;;;;;;21.90;47.70;;;;;;5100606;28;1182;-37
2022/04/04 03:55:07;;;;;;;;;;;21.90;47.60;;;;;;5100653;28;940;-36
2022/04/04 03:57:35;;;;;;;;;;;21.90;47.60;;;;;;5100937;28;1909;-37
2022/04/04 04:00:02;;;;;;;;;;;21.90;47.70;;;;;;5100836;28;943;-37
2022/04/04 04:02:29;;;;;;;;;;;21.90;47.60;;;;;;5100220;28;857;-36
2022/04/04 04:04:55;;;;;;;;;;;21.90;47.60;;;;;;5100103;28;941;-36
2022/04/04 04:07:24;;;;;;;;;;;21.90;47.70;;;;;;5100356;28;1217;-36
2022/04/04 04:09:51;;;;;;;;;;;21.90;47.70;;;;;;5100489;28;1023;-37
2022/04/04 04:12:18;;;;;;;;;;;21.90;47.70;;;;;;5100088;28;1009;-37
2022/04/04 04:14:46;;;;;;;;;;;21.90;47.70;;;;;;5100821;28;936;-36
2022/04/04 04:17:13;;;;;;;;;;;21.80;47.80;;;;;;5100757;28;1910;-37
2022/04/04 04:22:24;;;;;;;;;;;21.80;47.60;;;;;;5099545;28;1018;-37
2022/04/04 04:24:51;;;;;;;;;;;21.80;47.60;;;;;;5100046;28;952;-35
2022/04/04 04:27:18;;;;;;;;;;;21.90;47.60;;;;;;5099882;28;988;-37
2022/04/04 04:29:47;;;;;;;;;;;21.90;47.60;;;;;;5100158;28;968;-36
2022/04/04 04:32:14;;;;;;;;;;;21.90;47.50;;;;;;5098545;28;1013;-36
2022/04/04 04:34:46;;;;;;;;;;;21.90;47.50;;;;;;5099189;28;931;-36
2022/04/04 04:37:13;;;;;;;;;;;21.90;47.60;;;;;;5099024;28;1898;-37
2022/04/04 04:39:39;;;;;;;;;;;21.80;47.70;;;;;;5098677;28;924;-37
2022/04/04 04:42:06;;;;;;;;;;;21.80;47.70;;;;;;5099512;28;908;-35
2022/04/04 04:44:33;;;;;;;;;;;21.80;47.70;;;;;;5098795;28;1153;-37
2022/04/04 04:47:01;;;;;;;;;;;21.80;47.80;;;;;;5098960;28;1003;-37
2022/04/04 04:49:28;;;;;;;;;;;21.80;47.80;;;;;;5098516;28;1238;-36
2022/04/04 04:51:56;;;;;;;;;;;21.90;47.60;;;;;;5098551;28;937;-37
2022/04/04 04:54:22;;;;;;;;;;;21.90;47.50;;;;;;5098167;28;1013;-37
2022/04/04 04:56:49;;;;;;;;;;;21.90;47.40;;;;;;5098263;28;929;-36
2022/04/04 04:59:16;;;;;;;;;;;22.00;47.50;;;;;;5097383;28;1901;-37
2022/04/04 05:01:43;;;;;;;;;;;22.00;47.50;;;;;;5097674;28;955;-36
2022/04/04 05:04:11;;;;;;;;;;;22.00;47.50;;;;;;5098155;28;932;-34
2022/04/04 05:06:38;;;;;;;;;;;22.00;47.50;;;;;;5096921;28;1044;-38
2022/04/04 05:09:05;;;;;;;;;;;22.00;47.60;;;;;;5097109;28;1852;-37
2022/04/04 05:11:32;;;;;;;;;;;22.10;47.50;;;;;;5096901;28;996;-36
2022/04/04 05:13:59;;;;;;;;;;;22.10;47.60;;;;;;5097969;28;1031;-37
2022/04/04 05:16:28;;;;;;;;;;;22.10;47.60;;;;;;5096620;28;1063;-36
2022/04/04 05:18:55;;;;;;;;;;;22.10;47.70;;;;;;5095721;28;1898;-35
2022/04/04 05:21:23;;;;;;;;;;;22.10;47.70;;;;;;5094251;28;972;-37
2022/04/04 05:23:51;;;;;;;;;;;22.10;47.80;;;;;;5092920;28;1022;-38
2022/04/04 05:26:17;;;;;;;;;;;22.10;47.70;;;;;;5093241;28;1003;-36
2022/04/04 05:28:44;;;;;;;;;;;22.10;47.80;;;;;;5093019;28;928;-37
2022/04/04 05:31:11;;;;;;;;;;;22.00;47.80;;;;;;5094690;28;1444;-37
2022/04/04 05:33:39;;;;;;;;;;;22.10;47.80;;;;;;5094771;28;1001;-36
2022/04/04 05:36:06;;;;;;;;;;;22.10;47.90;;;;;;5094384;28;908;-36
2022/04/04 05:38:34;;;;;;;;;;;22.20;47.70;;;;;;5094162;28;1978;-36
2022/04/04 05:41:01;;;;;;;;;;;22.10;47.80;;;;;;5094278;28;960;-36
2022/04/04 05:43:28;;;;;;;;;;;22.00;47.80;;;;;;5095160;28;1032;-35
2022/04/04 05:45:55;;;;;;;;;;;22.00;48.00;;;;;;5095160;28;1015;-37
2022/04/04 05:48:23;;;;;;;;;;;22.00;48.00;;;;;;5094948;28;940;-37
2022/04/04 05:50:50;;;;;;;;;;;22.00;48.00;;;;;;5094075;28;949;-36
2022/04/04 05:53:17;;;;;;;;;;;21.90;48.00;;;;;;5093740;28;1012;-35
2022/04/04 05:55:45;;;;;;;;;;;22.00;48.00;;;;;;5093857;28;1015;-37
2022/04/04 05:58:12;;;;;;;;;;;22.00;48.00;;;;;;5095858;28;1902;-37
2022/04/04 06:00:39;;;;;;;;;;;21.90;48.00;;;;;;5095997;28;1020;-37
2022/04/04 06:03:06;;;;;;;;;;;21.90;47.90;;;;;;5094840;28;996;-44
2022/04/04 06:05:34;;;;;;;;;;;22.10;47.70;;;;;;5094502;28;980;-44
2022/04/04 06:08:02;;;;;;;;;;;22.10;47.60;;;;;;5095375;28;923;-43
2022/04/04 06:10:28;;;;;;;;;;;22.10;47.60;;;;;;5094732;28;956;-40
2022/04/04 06:12:56;;;;;;;;;;;22.10;47.90;;;;;;5095789;28;963;-41
2022/04/04 06:15:23;;;;;;;;;;;22.10;47.70;;;;;;5095330;28;1011;-45
2022/04/04 06:17:50;;;;;;;;;;;22.10;47.60;;;;;;5095327;28;1909;-40
2022/04/04 06:20:17;;;;;;;;;;;22.10;48.00;;;;;;5095131;28;857;-42
2022/04/04 06:22:44;;;;;;;;;;;22.10;47.70;;;;;;5095108;28;991;-39
2022/04/04 06:25:12;;;;;;;;;;;22.10;48.00;;;;;;5094474;28;984;-38
2022/04/04 06:27:39;;;;;;;;;;;22.10;48.10;;;;;;5095612;28;996;-37
2022/04/04 06:30:08;;;;;;;;;;;22.20;48.20;;;;;;5094254;28;941;-39
2022/04/04 06:32:35;;;;;;;;;;;22.10;48.00;;;;;;5094913;28;1038;-40
2022/04/04 06:35:04;;;;;;;;;;;22.10;48.00;;;;;;5094817;28;1457;-39
2022/04/04 06:37:31;;;;;;;;;;;22.10;48.10;;;;;;5095557;28;1035;-40
2022/04/04 06:39:58;;;;;;;;;;;22.10;48.00;;;;;;5095137;28;1918;-39
2022/04/04 06:42:25;;;;;;;;;;;22.00;48.00;;;;;;5094567;28;987;-41
2022/04/04 06:44:54;;;;;;;;;;;22.00;49.10;;;;;;5095122;28;1467;-41
2022/04/04 06:47:22;;;;;;;;;;;22.10;48.00;;;;;;5094573;28;996;-36
2022/04/04 06:49:50;;;;;;;;;;;22.00;49.10;;;;;;5094875;28;857;-37
2022/04/04 06:52:17;;;;;;;;;;;22.00;48.00;;;;;;5094413;28;971;-38
2022/04/04 06:54:43;;;;;;;;;;;22.10;48.10;;;;;;5095646;28;1015;-41
2022/04/04 06:57:10;;;;;;;;;;;22.00;47.90;;;;;;5094033;28;985;-43
2022/04/04 06:59:37;;;;;;;;;;;22.00;47.90;;;;;;5095456;28;1910;-44
2022/04/04 07:02:04;;;;;;;;;;;22.00;48.00;;;;;;5094565;28;1009;-42
2022/04/04 07:04:32;;;;;;;;;;;22.00;48.00;;;;;;5097958;28;924;-40
2022/04/04 07:06:59;;;;;;;;;;;22.10;47.90;;;;;;5098723;28;1022;-40
2022/04/04 07:09:25;;;;;;;;;;;22.10;47.80;;;;;;5100321;28;981;-43
2022/04/04 07:11:53;;;;;;;;;;;22.00;47.80;;;;;;5099261;28;973;-40
2022/04/04 07:14:19;;;;;;;;;;;22.10;47.80;;;;;;5097720;28;1022;-41
2022/04/04 07:16:46;;;;;;;;;;;22.10;47.80;;;;;;5098035;28;988;-41
2022/04/04 07:19:15;;;;;;;;;;;22.10;47.70;;;;;;5098004;28;1898;-44
2022/04/04 07:21:44;;;;;;;;;;;22.10;47.80;;;;;;5098265;28;1201;-39
2022/04/04 07:24:10;;;;;;;;;;;22.10;47.60;;;;;;5098333;28;1002;-39
2022/04/04 07:26:37;;;;;;;;;;;22.10;47.60;;;;;;5099177;28;932;-40
2022/04/04 07:29:04;;;;;;;;;;;22.10;47.60;;;;;;5097918;28;900;-40
2022/04/04 07:31:31;;;;;;;;;;;22.00;47.50;;;;;;5099145;28;993;-43
2022/04/04 07:33:58;;;;;;;;;;;22.00;47.50;;;;;;5099173;28;973;-39
2022/04/04 07:36:25;;;;;;;;;;;22.00;47.50;;;;;;5097275;28;992;-43
2022/04/04 07:38:53;;;;;;;;;;;22.00;47.40;;;;;;5098916;28;1980;-41
2022/04/04 07:41:20;;;;;;;;;;;22.00;47.40;;;;;;5097550;28;980;-39
2022/04/04 07:43:47;;;;;;;;;;;22.00;47.30;;;;;;5098765;28;976;-44
2022/04/04 07:46:14;;;;;;;;;;;22.10;47.30;;;;;;5098928;28;1098;-43
2022/04/04 07:48:42;;;;;;;;;;;22.10;47.40;;;;;;5098242;28;992;-42
2022/04/04 07:51:09;;;;;;;;;;;22.00;47.20;;;;;;5098997;28;1010;-40
2022/04/04 07:53:36;;;;;;;;;;;22.10;47.20;;;;;;5097766;28;948;-43
2022/04/04 07:56:05;;;;;;;;;;;22.10;47.00;;;;;;5096797;28;1038;-43
2022/04/04 07:58:32;;;;;;;;;;;22.00;47.00;;;;;;5098343;28;1898;-40
2022/04/04 08:00:59;;;;;;;;;;;22.00;47.00;;;;;;5098046;28;996;-44
2022/04/04 08:03:26;;;;;;;;;;;22.00;47.00;;;;;;5095659;28;972;-40
2022/04/04 08:05:54;;;;;;;;;;;22.00;46.90;;;;;;5096719;28;989;-41
2022/04/04 08:08:20;;;;;;;;;;;22.00;47.00;;;;;;5096646;28;1036;-39
2022/04/04 08:10:47;;;;;;;;;;;22.00;46.80;;;;;;5096340;28;956;-40
2022/04/04 08:13:15;;;;;;;;;;;22.00;46.70;;;;;;5095212;28;973;-43
2022/04/04 08:15:42;;;;;;;;;;;22.00;46.80;;;;;;5095849;28;1019;-40
2022/04/04 08:18:09;;;;;;;;;;;22.00;46.70;;;;;;5095994;28;1009;-43
2022/04/04 08:20:35;;;;;;;;;;;22.00;46.80;;;;;;5096498;28;1901;-39
2022/04/04 08:23:02;;;;;;;;;;;22.00;46.60;;;;;;5096733;28;1011;-40
2022/04/04 08:25:30;;;;;;;;;;;22.00;46.40;;;;;;5096211;28;946;-41
2022/04/04 08:27:56;;;;;;;;;;;21.90;46.50;;;;;;5096060;28;877;-39
2022/04/04 08:30:24;;;;;;;;;;;22.00;46.50;;;;;;5096694;28;1015;-40
2022/04/04 08:32:51;;;;;;;;;;;22.00;46.60;;;;;;5095992;28;984;-39
2022/04/04 08:35:18;;;;;;;;;;;22.00;46.60;;;;;;5096525;28;941;-40
2022/04/04 08:37:46;;;;;;;;;;;22.00;46.40;;;;;;5096557;28;995;-41
2022/04/04 08:40:14;;;;;;;;;;;22.00;46.40;;;;;;5096219;28;1913;-41
2022/04/04 08:42:41;;;;;;;;;;;22.00;46.50;;;;;;5095487;28;1272;-40
2022/04/04 08:45:08;;;;;;;;;;;21.90;46.30;;;;;;5096037;28;948;-39
2022/04/04 08:47:37;;;;;;;;;;;22.00;46.40;;;;;;5096835;28;984;-42
2022/04/04 08:50:04;;;;;;;;;;;21.90;46.40;;;;;;5095227;28;956;-41
2022/04/04 08:52:30;;;;;;;;;;;21.90;46.40;;;;;;5095278;28;959;-43
2022/04/04 08:54:57;;;;;;;;;;;21.90;46.60;;;;;;5095515;28;948;-41
2022/04/04 08:57:24;;;;;;;;;;;21.90;46.40;;;;;;5095725;28;1051;-40
2022/04/04 08:59:51;;;;;;;;;;;21.90;46.40;;;;;;5097216;28;1981;-41
2022/04/04 09:02:18;;;;;;;;;;;21.90;46.40;;;;;;5097661;28;951;-41
2022/04/04 09:04:51;;;;;;;;;;;21.90;46.50;;;;;;5094435;28;932;-43
2022/04/04 09:07:18;;;;;;;;;;;21.90;46.50;;;;;;5095631;28;939;-44
2022/04/04 09:09:48;;;;;;;;;;;21.90;46.50;;;;;;5095188;28;1015;-43
2022/04/04 09:12:16;;;;;;;;;;;21.90;46.40;;;;;;5094719;28;1009;-41
2022/04/04 09:14:44;;;;;;;;;;;21.90;46.40;;;;;;5096850;28;951;-40
2022/04/04 09:17:11;;;;;;;;;;;21.90;46.30;;;;;;5095654;28;867;-40
2022/04/04 09:19:38;;;;;;;;;;;21.90;46.10;;;;;;5095616;28;1909;-40
2022/04/04 09:22:07;;;;;;;;;;;21.90;46.00;;;;;;5095614;28;924;-42
2022/04/04 09:24:44;;;;;;;;;;;22.00;46.00;;;;;;5095997;28;1039;-40
2022/04/04 09:27:11;;;;;;;;;;;21.90;46.10;;;;;;5095008;28;1007;-39
2022/04/04 09:29:41;;;;;;;;;;;21.90;45.90;;;;;;5095649;28;1027;-40
2022/04/04 09:32:11;;;;;;;;;;;21.90;45.80;;;;;;5095015;28;992;-42
2022/04/04 09:34:56;;;;;;;;;;;21.90;45.80;;;;;;5096267;28;885;-40
2022/04/04 09:37:25;;;;;;;;;;;21.90;45.90;;;;;;5096106;28;1013;-40
2022/04/04 09:40:01;;;;;;;;;;;21.90;45.80;;;;;;5095305;28;1905;-41
2022/04/04 09:42:28;;;;;;;;;;;21.90;45.90;;;;;;5095595;28;959;-43
2022/04/04 09:44:58;;;;;;;;;;;21.80;45.80;;;;;;5096254;28;1022;-42
2022/04/04 09:47:44;;;;;;;;;;;21.80;45.80;;;;;;5095261;28;1008;-41
2022/04/04 09:50:11;;;;;;;;;;;21.80;45.70;;;;;;5095321;28;992;-44
2022/04/04 09:52:51;;;;;;;;;;;21.80;45.70;;;;;;5095572;28;1001;-43
2022/04/04 09:55:27;;;;;;;;;;;21.80;45.80;;;;;;5095645;28;873;-40
2022/04/04 09:57:54;;;;;;;;;;;21.80;45.90;;;;;;5095774;28;998;-40
2022/04/04 10:00:21;;;;;;;;;;;21.90;45.90;;;;;;5094903;28;1906;-39
2022/04/04 10:02:48;;;;;;;;;;;21.80;45.70;;;;;;5095020;28;943;-40
2022/04/04 10:05:15;;;;;;;;;;;21.80;45.70;;;;;;5095346;28;952;-44
2022/04/04 10:07:42;;;;;;;;;;;21.80;45.90;;;;;;5095365;28;1048;-42
2022/04/04 10:10:10;;;;;;;;;;;21.80;45.80;;;;;;5095558;28;1057;-41
2022/04/04 10:12:38;;;;;;;;;;;21.80;45.70;;;;;;5093893;28;1033;-41
2022/04/04 10:15:07;;;;;;;;;;;21.80;45.80;;;;;;5093995;28;963;-41
2022/04/04 10:17:34;;;;;;;;;;;21.80;45.80;;;;;;5092203;28;977;-38
2022/04/04 10:20:02;;;;;;;;;;;21.80;45.80;;;;;;5095229;28;1990;-40
2022/04/04 10:22:28;;;;;;;;;;;21.80;45.80;;;;;;5094766;28;990;-40
2022/04/04 10:24:57;;;;;;;;;;;21.80;45.90;;;;;;5094742;28;937;-43
2022/04/04 10:27:25;;;;;;;;;;;21.80;45.70;;;;;;5094769;28;940;-43
2022/04/04 10:30:00;;;;;;;;;;;21.80;45.70;;;;;;5094029;28;935;-41
2022/04/04 10:32:28;;;;;;;;;;;21.70;45.70;;;;;;5094617;28;995;-39
2022/04/04 10:34:55;;;;;;;;;;;21.70;45.70;;;;;;5094909;28;1059;-40
2022/04/04 10:37:26;;;;;;;;;;;21.80;45.90;;;;;;5095135;28;992;-39
2022/04/04 10:39:53;;;;;;;;;;;21.70;45.80;;;;;;5096216;28;1906;-40
2022/04/04 10:42:28;;;;;;;;;;;21.80;45.80;;;;;;5100259;28;940;-41
2022/04/04 10:45:00;;;;;;;;;;;21.70;45.70;;;;;;5097180;28;1046;-39
2022/04/04 10:47:28;;;;;;;;;;;21.70;45.70;;;;;;5095206;28;1023;-39
2022/04/04 10:49:56;;;;;;;;;;;21.70;45.80;;;;;;5095701;28;1576;-43
2022/04/04 10:52:39;;;;;;;;;;;21.80;45.80;;;;;;5098858;28;1017;-39
2022/04/04 10:55:24;;;;;;;;;;;21.70;45.50;;;;;;5094036;28;1469;-41
2022/04/04 10:57:57;;;;;;;;;;;21.70;45.70;;;;;;5078534;28;1027;-42
2022/04/04 11:00:31;;;;;;;;;;;21.70;45.40;;;;;;5093228;28;1918;-43
2022/04/04 11:02:58;;;;;;;;;;;21.70;45.40;;;;;;5083008;28;1588;-43
2022/04/04 11:08:08;;;;;;;;;;;21.70;45.60;;;;;;5095849;28;882;-39
2022/04/04 11:10:42;;;;;;;;;;;21.70;45.30;;;;;;5096384;28;1006;-40
2022/04/04 11:13:16;;;;;;;;;;;21.70;45.60;;;;;;5094992;28;998;-48
2022/04/04 11:15:43;;;;;;;;;;;21.70;45.40;;;;;;5095778;28;1801;-40
2022/04/04 11:18:10;;;;;;;;;;;21.70;45.40;;;;;;5097396;28;984;-40
2022/04/04 11:20:43;;;;;;;;;;;21.70;45.50;;;;;;5095894;28;1988;-41
2022/04/04 11:23:11;;;;;;;;;;;21.70;45.40;;;;;;5097106;28;1023;-45
2022/04/04 11:25:48;;;;;;;;;;;21.70;45.50;;;;;;5096648;28;1095;-40
2022/04/04 11:28:18;;;;;;;;;;;21.70;45.40;;;;;;5095776;28;1028;-43
2022/04/04 11:30:45;;;;;;;;;;;21.70;45.20;;;;;;5096746;28;956;-45
2022/04/04 11:33:21;;;;;;;;;;;21.70;45.10;;;;;;5095980;28;966;-43
2022/04/04 11:35:48;;;;;;;;;;;21.70;45.20;;;;;;5096658;28;1022;-44
2022/04/04 11:38:18;;;;;;;;;;;21.70;45.40;;;;;;5098984;28;1140;-41
2022/04/04 11:40:49;;;;;;;;;;;21.60;45.20;;;;;;5098476;28;1898;-41
2022/04/04 11:43:19;;;;;;;;;;;21.70;45.20;;;;;;5096647;28;1066;-44
2022/04/04 11:45:47;;;;;;;;;;;21.70;45.20;;;;;;5097011;28;1020;-43
2022/04/04 11:48:16;;;;;;;;;;;21.70;45.10;;;;;;5096405;28;1037;-41
2022/04/04 11:50:43;;;;;;;;;;;21.70;45.10;;;;;;5096382;28;952;-40
2022/04/04 11:53:11;;;;;;;;;;;21.70;45.20;;;;;;5096911;28;924;-41
2022/04/04 11:55:39;;;;;;;;;;;21.70;45.30;;;;;;5097477;28;932;-44
2022/04/04 11:58:10;;;;;;;;;;;21.70;45.10;;;;;;5096829;28;959;-42
2022/04/04 12:00:38;;;;;;;;;;;21.70;45.10;;;;;;5096951;28;1902;-42
2022/04/04 12:03:09;;;;;;;;;;;21.70;45.00;;;;;;5096971;28;900;-43
2022/04/04 12:05:36;;;;;;;;;;;21.70;45.20;;;;;;5097674;28;1836;-42
2022/04/04 12:08:03;;;;;;;;;;;21.70;45.20;;;;;;5094924;28;992;-40
2022/04/04 12:10:31;;;;;;;;;;;21.60;45.10;;;;;;5095402;28;869;-41
2022/04/04 12:12:59;;;;;;;;;;;21.70;45.30;;;;;;5094093;28;942;-40
2022/04/04 12:15:27;;;;;;;;;;;21.70;45.20;;;;;;5095270;28;967;-40
2022/04/04 12:17:55;;;;;;;;;;;21.70;45.20;;;;;;5083056;28;1334;-40
2022/04/04 12:20:22;;;;;;;;;;;21.70;45.20;;;;;;5074235;28;1910;-42
2022/04/04 12:25:34;;;;;;;;;;;21.70;45.10;;;;;;5075438;28;628;-40
2022/04/04 12:28:01;;;;;;;;;;;21.70;45.20;;;;;;5075199;28;1006;-43
2022/04/04 12:30:36;;;;;;;;;;;21.70;45.30;;;;;;5074809;28;940;-41
2022/04/04 12:33:13;;;;;;;;;;;21.60;45.30;;;;;;5075165;28;972;-41
2022/04/04 12:35:43;;;;;;;;;;;21.70;45.30;;;;;;5075534;28;960;-42
2022/04/04 12:38:10;;;;;;;;;;;21.70;45.30;;;;;;5076564;28;1030;-43
2022/04/04 12:40:39;;;;;;;;;;;21.70;45.40;;;;;;5075621;28;1985;-40
2022/04/04 12:43:07;;;;;;;;;;;21.60;45.40;;;;;;5076141;28;1154;-41
2022/04/04 12:45:34;;;;;;;;;;;21.70;45.60;;;;;;5075971;28;961;-40
2022/04/04 12:48:04;;;;;;;;;;;21.70;45.60;;;;;;5076047;28;948;-39
2022/04/04 12:50:38;;;;;;;;;;;21.60;45.60;;;;;;5074876;28;984;-42
2022/04/04 12:53:07;;;;;;;;;;;21.60;45.60;;;;;;5074825;28;916;-40
2022/04/04 12:55:34;;;;;;;;;;;21.60;45.60;;;;;;5075120;28;944;-39
2022/04/04 12:58:22;;;;;;;;;;;21.70;45.60;;;;;;5048911;28;1051;-42
2022/04/04 13:00:49;;;;;;;;;;;21.60;45.60;;;;;;5049703;28;1909;-43
2022/04/04 13:03:23;;;;;;;;;;;21.60;45.60;;;;;;5049954;28;1158;-42
2022/04/04 13:05:52;;;;;;;;;;;21.60;45.70;;;;;;5067370;28;1023;-39
2022/04/04 13:08:20;;;;;;;;;;;21.70;45.70;;;;;;5073275;28;933;-43
2022/04/04 13:11:02;;;;;;;;;;;21.60;45.70;;;;;;5073567;28;1027;-42
2022/04/04 13:13:30;;;;;;;;;;;21.60;45.70;;;;;;5072288;28;1005;-41
2022/04/04 13:15:56;;;;;;;;;;;21.60;45.70;;;;;;5073976;28;1043;-42
2022/04/04 13:18:24;;;;;;;;;;;21.60;45.70;;;;;;5074025;28;1308;-40
2022/04/04 13:20:52;;;;;;;;;;;21.60;45.70;;;;;;5073925;28;1989;-39
2022/04/04 13:23:20;;;;;;;;;;;21.60;45.80;;;;;;5074634;28;991;-40
2022/04/04 13:25:47;;;;;;;;;;;21.60;45.80;;;;;;5074166;28;977;-41
2022/04/04 13:28:14;;;;;;;;;;;21.50;45.70;;;;;;5073746;28;936;-40
2022/04/04 13:30:40;;;;;;;;;;;21.60;45.90;;;;;;5074742;28;1035;-42
2022/04/04 13:33:08;;;;;;;;;;;21.60;45.80;;;;;;5075972;28;921;-42
2022/04/04 13:35:35;;;;;;;;;;;21.60;45.80;;;;;;5074267;28;976;-39
2022/04/04 13:38:03;;;;;;;;;;;21.60;45.90;;;;;;5073839;28;1003;-38
2022/04/04 13:40:30;;;;;;;;;;;21.60;45.80;;;;;;5074214;28;1993;-43
2022/04/04 13:42:57;;;;;;;;;;;21.60;45.90;;;;;;5075563;28;1062;-41
2022/04/04 13:45:24;;;;;;;;;;;21.60;45.70;;;;;;5075993;28;967;-42
2022/04/04 13:47:52;;;;;;;;;;;21.60;45.70;;;;;;5076043;28;1056;-40
2022/04/04 13:50:18;;;;;;;;;;;21.50;45.70;;;;;;5074789;28;1179;-39
2022/04/04 13:52:45;;;;;;;;;;;21.50;45.70;;;;;;5071678;28;1038;-43
2022/04/04 13:55:13;;;;;;;;;;;21.50;45.90;;;;;;5073881;28;944;-44
2022/04/04 13:57:40;;;;;;;;;;;21.50;45.70;;;;;;5074095;28;1769;-41
2022/04/04 14:00:07;;;;;;;;;;;21.50;45.80;;;;;;5074284;28;1905;-42
2022/04/04 14:02:40;;;;;;;;;;;21.50;45.80;;;;;;5073459;28;1047;-40
2022/04/04 14:05:08;;;;;;;;;;;21.50;45.80;;;;;;5073599;28;939;-40
2022/04/04 14:07:35;;;;;;;;;;;21.50;45.90;;;;;;5073292;28;1042;-44
2022/04/04 14:10:02;;;;;;;;;;;21.50;45.80;;;;;;5073083;28;1029;-39
2022/04/04 14:12:31;;;;;;;;;;;21.50;45.80;;;;;;5072731;28;970;-39
2022/04/04 14:14:58;;;;;;;;;;;21.50;45.90;;;;;;5072144;28;937;-43
2022/04/04 14:17:25;;;;;;;;;;;21.50;45.80;;;;;;5072995;28;991;-42
2022/04/04 14:19:53;;;;;;;;;;;21.50;45.80;;;;;;5073421;28;948;-40
2022/04/04 14:22:19;;;;;;;;;;;21.50;45.80;;;;;;5072839;28;1992;-41
2022/04/04 14:24:49;;;;;;;;;;;21.50;45.80;;;;;;5072695;28;1051;-38
2022/04/04 14:27:15;;;;;;;;;;;21.50;45.80;;;;;;5072481;28;1019;-43
2022/04/04 14:29:43;;;;;;;;;;;21.50;45.70;;;;;;5072530;28;1850;-43
2022/04/04 14:32:10;;;;;;;;;;;21.50;45.60;;;;;;5074316;28;1048;-44
2022/04/04 14:34:37;;;;;;;;;;;21.50;45.70;;;;;;5072588;28;952;-42
2022/04/04 14:37:04;;;;;;;;;;;21.50;45.70;;;;;;5073478;28;993;-43
2022/04/04 14:39:32;;;;;;;;;;;21.50;45.70;;;;;;5072569;28;996;-39
2022/04/04 14:41:59;;;;;;;;;;;21.50;45.70;;;;;;5072173;28;1906;-39
2022/04/04 14:44:26;;;;;;;;;;;21.50;45.70;;;;;;5071378;28;1189;-43
2022/04/04 14:46:55;;;;;;;;;;;21.40;45.60;;;;;;5071358;28;1004;-40
2022/04/04 14:49:22;;;;;;;;;;;21.50;45.70;;;;;;5072582;28;956;-41
2022/04/04 14:51:48;;;;;;;;;;;21.50;45.60;;;;;;5072860;28;1020;-40